• Join FlightAware (Why Join?)
  • Login
  • US Flag 
08:26PM EDT


 

Airport Tracker/Info


-or-


 

Live Flight TrackerFlight Track Log ✈ N690KY ✈ 31-Jul-2013 ✈ KOMH - KTYS

Flight Track Log - Related Links

Times and Time Zones

All times are in EDT time to prevent confusion due to time zone crossing. See the N690KY flight status page for this flight to view local times or setup timezone preferences in your user account.

Time Position Orientation Groundspeed Altitude Reporting Facility
EDT Latitude Longitude Course Direction KTS MPH feet Rate Location/Type
01:45PM 38.2000 -78.1500 270° West 132 152 2,800  Level Potomac TRACON
01:46PM 38.1833 -78.2000 247° West 129 148 3,700 840 Climbing Potomac TRACON
01:47PM 38.1667 -78.2333 238° Southwest 126 145 4,600 780 Climbing Potomac TRACON
01:48PM 38.1622 -78.2669 260° West 126 145 5,200 660 Climbing Washington Center
01:49PM 38.1489 -78.3008 243° Southwest 131 151 5,900 660 Climbing Washington Center
01:50PM 38.1333 -78.3450 246° West 131 151 6,600 660 Climbing Washington Center
01:51PM 38.1167 -78.3508 270° West  Level FlightAware Approximate
01:51PM 38.1178 -78.3814 241° Southwest 131 151 7,200  Level Washington Center
01:52PM 38.1022 -78.4231 245° Southwest 131 151 7,800 540 Climbing Washington Center
01:53PM 38.0889 -78.4569 243° Southwest 131 151 8,400 540 Climbing Washington Center
01:54PM 38.0733 -78.5011 246° West 131 151 9,000 540 Climbing Washington Center
01:55PM 38.0619 -78.5428 251° West 131 151 9,500 420 Climbing Washington Center
01:56PM 38.0486 -78.5794 245° Southwest 131 151 9,900 240 Climbing Washington Center
01:57PM 38.0308 -78.6233 243° Southwest 131 151 10,000  Climbing Washington Center
01:58PM 38.0128 -78.6703 244° Southwest 136 157 10,000  Level Washington Center
01:59PM 37.9928 -78.7194 243° Southwest 142 163 10,000  Level Washington Center
02:00PM 37.9728 -78.7714 244° Southwest 155 178 10,000  Level Washington Center
02:01PM 37.9547 -78.8206 245° Southwest 155 178 10,000  Level Washington Center
02:02PM 37.9367 -78.8672 244° Southwest 155 178 10,000  Level Washington Center
02:03PM 37.9208 -78.9086 244° Southwest 155 178 10,000  Level Washington Center
02:04PM 37.9031 -78.9553 244° Southwest 155 178 10,000  Level Washington Center
02:05PM 37.8953 -79.0047 259° West 155 178 10,000  Level Washington Center
02:06PM 37.8753 -79.0461 239° Southwest 149 171 10,000  Level Washington Center
02:07PM 37.8572 -79.0978 246° West 149 171 10,000  Level Washington Center
02:08PM 37.8392 -79.1442 244° Southwest 149 171 10,000  Level Washington Center
02:09PM 37.8211 -79.1908 244° Southwest 149 171 10,100  Climbing Washington Center
02:10PM 37.8072 -79.2322 247° West 149 171 10,100  Level Washington Center
02:11PM 37.7892 -79.2761 243° Southwest 149 171 10,100  Level Washington Center
02:12PM 37.7711 -79.3225 244° Southwest 154 177 10,100  Level Washington Center
02:13PM 37.7531 -79.3689 244° Southwest 154 177 10,100  Level Washington Center
02:14PM 37.7328 -79.4150 241° Southwest 154 177 10,100 -60 Level Washington Center
02:15PM 37.7047 -79.4478 223° Southwest 149 171 10,000 -60 Descending Washington Center
02:16PM 37.6825 -79.4886 235° Southwest 149 171 10,000  Level Washington Center
02:17PM 37.6603 -79.5267 234° Southwest 143 165 10,000  Level Washington Center
02:18PM 37.6422 -79.5706 243° Southwest 138 159 10,000  Level Washington Center
02:19PM 37.6286 -79.6039 243° Southwest 138 159 10,000  Level Washington Center
02:20PM 37.6081 -79.6553 243° Southwest 138 159 10,000  Level Washington Center
02:21PM 37.5919 -79.6961 244° Southwest 138 159 10,000  Level Washington Center
02:23PM 37.5622 -79.7728 244° Southwest  Level FlightAware Approximate
02:30PM 37.4197 -80.1378 244° Southwest  Level FlightAware Approximate
02:31PM 37.3992 -80.1898 244° Southwest  Level FlightAware Approximate
02:32PM 37.3787 -80.2418 244° Southwest  Level FlightAware Approximate
02:33PM 37.3582 -80.2938 244° Southwest  Level FlightAware Approximate
02:34PM 37.3377 -80.3457 244° Southwest  Level FlightAware Approximate
02:35PM 37.3171 -80.3977 244° Southwest  Level FlightAware Approximate
02:36PM 37.2966 -80.4495 244° Southwest  Level FlightAware Approximate
02:37PM 37.2760 -80.5014 243° Southwest  Level FlightAware Approximate
02:38PM 37.2553 -80.5532 243° Southwest  Level FlightAware Approximate
02:39PM 37.2404 -80.6068 243° Southwest  Level FlightAware Approximate
02:39PM 37.3217 -80.3853 243° Southwest 141 162 10,000  Level Atlanta Center
02:40PM 37.2194 -80.6583 243° Southwest  Level FlightAware Approximate
02:40PM 37.3061 -80.4225 242° Southwest 135 155 10,000  Level Atlanta Center
02:41PM 37.1983 -80.7098 243° Southwest  Level FlightAware Approximate
02:41PM 37.2906 -80.4625 244° Southwest 130 150 10,100  Level Atlanta Center
02:42PM 37.1772 -80.7612 243° Southwest  Level FlightAware Approximate
02:42PM 37.2731 -80.5022 241° Southwest 125 144 10,100  Level Atlanta Center
02:43PM 37.1560 -80.8127 243° Southwest  Level FlightAware Approximate
02:43PM 37.2594 -80.5394 245° Southwest 125 144 10,100  Level Atlanta Center
02:44PM 37.2458 -80.5767 245° Southwest 125 144 10,100  Level Atlanta Center
02:45PM 37.2303 -80.6139 242° Southwest 125 144 10,100  Level Atlanta Center
02:46PM 37.2128 -80.6536 241° Southwest 125 144 10,100  Level Atlanta Center
02:47PM 37.1972 -80.6933 244° Southwest 125 144 10,100  Level Atlanta Center
02:48PM 37.1794 -80.7383 244° Southwest 130 150 10,100  Level Atlanta Center
02:49PM 37.1639 -80.7756 242° Southwest 130 150 10,100  Level Atlanta Center
02:50PM 37.1483 -80.8153 244° Southwest 130 150 10,100  Level Atlanta Center
02:51PM 37.1347 -80.8547 247° West 135 155 10,100  Level Atlanta Center
02:52PM 37.1189 -80.8894 240° Southwest 135 155 10,100  Level Atlanta Center
02:53PM 37.1011 -80.9317 242° Southwest 135 155 10,100  Level Atlanta Center
02:54PM 37.0856 -80.9714 244° Southwest 135 155 10,100  Level Atlanta Center
02:55PM 37.0678 -81.0161 244° Southwest 135 155 10,100 240 Level Atlanta Center
02:56PM 37.0519 -81.0506 240° Southwest 135 155 10,600 420 Climbing Atlanta Center
02:57PM 37.0403 -81.0850 247° West 129 148 11,000 360 Climbing Atlanta Center
02:58PM 37.0244 -81.1192 240° Southwest 123 142 11,400 360 Climbing Atlanta Center
02:59PM 37.0128 -81.1508 245° Southwest 123 142 11,800 300 Climbing Atlanta Center
03:00PM 36.9989 -81.1853 243° Southwest 123 142 12,100 120 Climbing Atlanta Center
03:01PM 36.9831 -81.2194 240° Southwest 123 142 12,100  Level Atlanta Center
03:02PM 36.9675 -81.2642 246° West 123 142 12,100  Level Atlanta Center
03:03PM 36.9494 -81.3039 240° Southwest 128 147 12,100  Level Atlanta Center
03:04PM 36.9317 -81.3458 242° Southwest 128 147 12,100  Level Atlanta Center
03:05PM 36.9158 -81.3881 245° Southwest 138 159 12,100  Level Atlanta Center
03:06PM 36.9000 -81.4250 242° Southwest 138 159 12,100  Level Atlanta Center
03:07PM 36.8822 -81.4644 241° Southwest 138 159 12,100  Level Atlanta Center
03:08PM 36.8642 -81.5092 243° Southwest 138 159 12,100  Level Atlanta Center
03:09PM 36.8486 -81.5589 249° West 138 159 12,100  Level Atlanta Center
03:10PM 36.8308 -81.6036 244° Southwest 143 165 12,100  Level Atlanta Center
03:11PM 36.8147 -81.6431 243° Southwest 143 165 12,100  Level Atlanta Center
03:12PM 36.7969 -81.6875 243° Southwest 138 159 12,100  Level Atlanta Center
03:13PM 36.7789 -81.7294 242° Southwest 138 159 12,100  Level Atlanta Center
03:14PM 36.7611 -81.7714 242° Southwest 138 159 12,100  Level Atlanta Center
03:15PM 36.7431 -81.8136 242° Southwest 138 159 12,100  Level Atlanta Center
03:16PM 36.7250 -81.8581 243° Southwest 138 159 12,100  Level Atlanta Center
03:17PM 36.7089 -81.8972 243° Southwest 138 159 12,100  Level Atlanta Center
03:18PM 36.6911 -81.9417 243° Southwest 138 159 12,100  Level Atlanta Center
03:19PM 36.6731 -81.9836 242° Southwest 138 159 12,100  Level Atlanta Center
03:20PM 36.6550 -82.0281 243° Southwest 138 159 12,100  Level Atlanta Center
03:21PM 36.6369 -82.0700 242° Southwest 138 159 12,100  Level Atlanta Center
03:22PM 36.6189 -82.1144 243° Southwest 138 159 12,100  Level Atlanta Center
03:23PM 36.6006 -82.1561 241° Southwest 138 159 12,100  Level Atlanta Center
03:24PM 36.5825 -82.2006 243° Southwest 138 159 12,100  Level Atlanta Center
03:25PM 36.5644 -82.2425 242° Southwest 138 159 12,100  Level Atlanta Center
03:26PM 36.5464 -82.2892 244° Southwest 138 159 12,100  Level Atlanta Center
03:27PM 36.5261 -82.3311 239° Southwest 138 159 12,100  Level Atlanta Center
03:28PM 36.5081 -82.3781 244° Southwest 138 159 12,100  Level Atlanta Center
03:29PM 36.4878 -82.4222 240° Southwest 138 159 12,100  Level Atlanta Center
03:30PM 36.4694 -82.4664 243° Southwest 143 165 12,100  Level Atlanta Center
03:31PM 36.4514 -82.5108 243° Southwest 143 165 12,100  Level Atlanta Center
03:32PM 36.4311 -82.5575 242° Southwest 143 165 12,100  Level Atlanta Center
03:33PM 36.4128 -82.6017 243° Southwest 143 165 12,100  Level Atlanta Center
03:34PM 36.3944 -82.6433 241° Southwest 137 158 12,100  Level Atlanta Center
03:35PM 36.3783 -82.6850 244° Southwest 137 158 12,100  Level Atlanta Center
03:36PM 36.3600 -82.7264 241° Southwest 137 158 12,100  Level Atlanta Center
03:37PM 36.3417 -82.7706 243° Southwest 137 158 12,100  Level Atlanta Center
03:38PM 36.3233 -82.8122 241° Southwest 137 158 12,100  Level Atlanta Center
03:39PM 36.3089 -82.8458 242° Southwest 137 158 12,100  Level Atlanta Center
03:40PM 36.2844 -82.9003 241° Southwest 137 158 12,100  Level Atlanta Center
03:41PM 36.2661 -82.9442 243° Southwest 137 158 12,100 -60 Level Atlanta Center
03:42PM 36.2478 -82.9883 243° Southwest 143 165 12,000 -60 Descending Atlanta Center
03:43PM 36.2272 -83.0325 240° Southwest 142 163 12,000  Level Atlanta Center
03:44PM 36.2089 -83.0764 243° Southwest 142 163 12,000  Level Atlanta Center
03:45PM 36.1925 -83.1203 245° Southwest 136 157 12,000 -300 Level Atlanta Center
03:46PM 36.1700 -83.1667 239° Southwest 147 169 11,500 -420 Descending Atlanta Center
03:47PM 36.1494 -83.2158 243° Southwest 161 185 11,200 -480 Descending Atlanta Center
03:48PM 36.1267 -83.2675 241° Southwest 161 185 10,600 -600 Descending Atlanta Center
03:49PM 36.1042 -83.3192 242° Southwest 171 197 10,000 -720 Descending Atlanta Center
03:50PM 36.0814 -83.3758 244° Southwest 176 203 9,200 -780 Descending Atlanta Center
03:51PM 36.0567 -83.4300 241° Southwest 181 208 8,500 -600 Descending Atlanta Center
03:52PM 36.0361 -83.4789 243° Southwest 181 208 8,000 -600 Descending Atlanta Center
03:53PM 36.0133 -83.5306 241° Southwest 181 208 7,300 -720 Descending Atlanta Center
03:54PM 35.9886 -83.5897 243° Southwest 186 214 6,600 -660 Descending Atlanta Center
03:55PM 35.9594 -83.6333 230° Southwest 186 214 6,000 -600 Descending Atlanta Center
03:57PM 35.9202 -83.7099 238° Southwest  Level FlightAware Approximate
04:04PM 35.8000 -83.9833 219° Southwest  Level FlightAware Approximate
04:05PM 35.8110 -83.9940 219° Southwest  Level Estimated
04:06PM 35.8110 -83.9940 219° Southwest  Level Estimated
04:07PM 35.8110 -83.9940 219° Southwest  Level Estimated
04:08PM 35.8110 -83.9940 219° Southwest  Level Estimated
04:09PM 35.8110 -83.9940 219° Southwest  Level Estimated
04:10PM 35.8110 -83.9940 219° Southwest  Level Estimated
04:11PM 35.8110 -83.9940 219° Southwest  Level Estimated
04:12PM 35.8110 -83.9940 219° Southwest  Level Estimated